Time;durP1;ratioP1;P1;durP2;ratioP2;P2;SDS_P1;SDS_P2;PMS_P1;PMS_P2;Temp;Humidity;BMP_temperature;BMP_pressure;BME280_temperature;BME280_humidity;BME280_pressure;Samples;Min_cycle;Max_cycle;Signal;HPM_P1;HPM_P2
2021/11/29 00:00:53;;;;;;;6.63;4.10;;;;;;;1.64;100.00;94427.56;5285726;56;20124;-72
2021/11/29 00:05:55;;;;;;;9.50;5.05;;;;;;;1.34;100.00;94431.84;5286189;56;20225;-73
2021/11/29 00:10:58;;;;;;;7.55;4.55;;;;;;;1.45;100.00;94440.34;5285786;56;20124;-72
2021/11/29 00:16:00;;;;;;;5.85;4.18;;;;;;;1.64;100.00;94437.69;5275814;56;20663;-73
2021/11/29 00:21:05;;;;;;;7.75;4.78;;;;;;;1.64;100.00;94449.34;5258421;56;20133;-72
2021/11/29 00:26:07;;;;;;;7.05;5.13;;;;;;;1.61;100.00;94463.06;5264177;56;20571;-73
2021/11/29 00:31:16;;;;;;;8.43;5.03;;;;;;;1.50;100.00;94455.34;5264381;56;20125;-73
2021/11/29 00:36:19;;;;;;;5.70;4.30;;;;;;;1.69;100.00;94464.31;5265624;56;20115;-73
2021/11/29 00:41:21;;;;;;;10.85;7.50;;;;;;;1.55;100.00;94462.16;5264176;56;20619;-73
2021/11/29 00:46:24;;;;;;;8.98;5.97;;;;;;;1.42;100.00;94460.28;5263781;56;20143;-73
2021/11/29 00:51:26;;;;;;;10.13;5.88;;;;;;;1.42;100.00;94465.72;5264016;56;20549;-73
2021/11/29 00:56:29;;;;;;;8.75;5.95;;;;;;;1.43;100.00;94459.09;5263485;56;20231;-72
2021/11/29 01:01:32;;;;;;;7.03;4.63;;;;;;;1.49;100.00;94470.16;5263875;56;20868;-72
2021/11/29 01:06:34;;;;;;;7.80;5.30;;;;;;;1.58;100.00;94472.91;5263561;56;20162;-72
2021/11/29 01:11:37;;;;;;;9.88;4.85;;;;;;;1.49;100.00;94474.84;5263764;56;20116;-72
2021/11/29 01:16:39;;;;;;;6.40;4.78;;;;;;;1.49;100.00;94483.78;5263381;56;20545;-72
2021/11/29 01:21:41;;;;;;;8.38;5.13;;;;;;;1.44;100.00;94479.69;5263567;56;20580;-73
2021/11/29 01:26:44;;;;;;;7.45;5.10;;;;;;;1.24;100.00;94487.44;5263152;56;20295;-72
2021/11/29 01:31:47;;;;;;;10.18;6.35;;;;;;;1.11;100.00;94494.91;5263455;56;20120;-72
2021/11/29 01:36:50;;;;;;;13.60;8.73;;;;;;;1.03;100.00;94495.63;5263021;56;20651;-72
2021/11/29 01:41:52;;;;;;;7.40;4.53;;;;;;;0.85;100.00;94482.69;5263307;56;20620;-72
2021/11/29 01:46:59;;;;;;;10.90;6.53;;;;;;;0.93;100.00;94488.63;5254540;56;20116;-72
2021/11/29 01:52:02;;;;;;;7.05;4.95;;;;;;;0.90;100.00;94487.56;5263151;56;20112;-72
2021/11/29 01:57:05;;;;;;;5.70;4.25;;;;;;;0.91;100.00;94499.16;5262792;56;20129;-73
2021/11/29 02:02:07;;;;;;;4.13;3.55;;;;;;;0.75;100.00;94497.41;5263068;56;20252;-72
2021/11/29 02:07:10;;;;;;;5.55;4.32;;;;;;;0.75;100.00;94496.69;5262852;56;20234;-72
2021/11/29 02:12:13;;;;;;;5.18;3.70;;;;;;;0.62;100.00;94510.31;5262886;56;20129;-72
2021/11/29 02:17:16;;;;;;;9.05;4.38;;;;;;;0.62;100.00;94513.03;5262485;56;20593;-72
2021/11/29 02:22:19;;;;;;;6.03;4.38;;;;;;;0.71;100.00;94521.25;5262732;56;20618;-71
2021/11/29 02:27:21;;;;;;;5.45;3.90;;;;;;;0.78;100.00;94525.66;5262357;56;20103;-73
2021/11/29 02:32:24;;;;;;;5.88;4.28;;;;;;;0.67;100.00;94534.22;5262549;56;20144;-72
2021/11/29 02:37:27;;;;;;;7.60;4.68;;;;;;;0.73;100.00;94525.03;5252332;56;20138;-72
2021/11/29 02:42:29;;;;;;;7.00;5.55;;;;;;;0.61;100.00;94539.44;5261623;56;20572;-72
2021/11/29 02:47:32;;;;;;;10.68;6.35;;;;;;;0.65;100.00;94539.31;5261910;56;20588;-72
2021/11/29 02:52:34;;;;;;;4.10;3.63;;;;;;;0.78;100.00;94542.75;5262264;56;20124;-72
2021/11/29 02:57:36;;;;;;;7.55;5.38;;;;;;;0.73;100.00;94546.03;5261853;56;20159;-72
2021/11/29 03:02:39;;;;;;;6.75;5.05;;;;;;;0.90;100.00;94555.53;5262360;56;20780;-72
2021/11/29 03:07:42;;;;;;;8.07;5.40;;;;;;;0.84;100.00;94560.00;5261750;56;20134;-72
2021/11/29 03:12:44;;;;;;;6.05;4.32;;;;;;;0.99;100.00;94573.88;5262700;56;20557;-72
2021/11/29 03:17:47;;;;;;;8.80;5.03;;;;;;;1.01;100.00;94568.72;5261971;56;20601;-72
2021/11/29 03:22:49;;;;;;;9.52;5.95;;;;;;;0.84;100.00;94579.03;5261867;56;20135;-72
2021/11/29 03:27:52;;;;;;;6.47;4.60;;;;;;;0.91;100.00;94581.50;5261475;56;20107;-72
2021/11/29 03:32:55;;;;;;;6.63;4.72;;;;;;;0.82;100.00;94580.66;5252682;56;20235;-72
2021/11/29 03:37:57;;;;;;;3.33;2.83;;;;;;;0.81;100.00;94595.47;5261274;56;20152;-72
2021/11/29 03:43:00;;;;;;;4.95;3.60;;;;;;;0.93;100.00;94592.69;5261914;56;20121;-72
2021/11/29 03:48:02;;;;;;;4.93;3.40;;;;;;;0.92;100.00;94595.84;5261204;56;20117;-72
2021/11/29 03:53:05;;;;;;;6.00;4.80;;;;;;;0.81;100.00;94596.25;5263352;56;20125;-72
2021/11/29 03:58:07;;;;;;;6.20;4.80;;;;;;;0.92;100.00;94591.19;5264454;56;20112;-72
2021/11/29 04:03:10;;;;;;;5.22;3.95;;;;;;;1.03;99.85;94593.53;5264818;56;20304;-72
2021/11/29 04:08:13;;;;;;;8.32;4.63;;;;;;;0.87;100.00;94599.13;5264708;56;20133;-73
2021/11/29 04:13:15;;;;;;;6.55;4.90;;;;;;;0.95;100.00;94616.72;5264620;56;20138;-72
2021/11/29 04:18:17;;;;;;;6.85;5.20;;;;;;;0.77;100.00;94606.44;5264283;56;20601;-72
2021/11/29 04:23:20;;;;;;;7.53;4.72;;;;;;;0.69;100.00;94618.78;5264498;56;20881;-72
2021/11/29 04:28:22;;;;;;;5.82;4.05;;;;;;;0.78;100.00;94627.00;5264240;56;20098;-72
2021/11/29 04:33:25;;;;;;;7.72;5.00;;;;;;;0.79;100.00;94631.25;5264332;56;20116;-72
2021/11/29 04:38:28;;;;;;;7.55;5.95;;;;;;;0.76;100.00;94634.84;5264241;56;20137;-72
2021/11/29 04:43:30;;;;;;;7.60;4.78;;;;;;;0.91;100.00;94641.31;5264162;56;20652;-72
2021/11/29 04:48:32;;;;;;;5.68;4.47;;;;;;;0.92;100.00;94639.34;5263790;56;20129;-72
2021/11/29 04:53:35;;;;;;;5.35;4.50;;;;;;;0.70;100.00;94652.91;5263971;56;20129;-72
2021/11/29 04:58:38;;;;;;;3.53;3.22;;;;;;;0.74;100.00;94664.44;5263676;56;20137;-72
2021/11/29 05:03:40;;;;;;;3.95;3.53;;;;;;;0.91;100.00;94659.56;5263315;56;20193;-71
2021/11/29 05:08:43;;;;;;;7.35;5.43;;;;;;;0.87;100.00;94669.81;5263607;56;20103;-71
2021/11/29 05:13:45;;;;;;;4.45;4.03;;;;;;;0.97;100.00;94669.47;5263771;56;20125;-70
2021/11/29 05:18:47;;;;;;;5.80;4.47;;;;;;;1.06;99.70;94688.59;5263427;56;20163;-71
2021/11/29 05:23:50;;;;;;;6.25;5.20;;;;;;;0.90;100.00;94690.69;5263616;56;20197;-71
2021/11/29 05:28:53;;;;;;;6.65;5.35;;;;;;;0.79;100.00;94696.50;5263259;56;20146;-71
2021/11/29 05:33:55;;;;;;;8.32;5.20;;;;;;;0.85;100.00;94708.31;5263983;56;20226;-71
2021/11/29 05:38:58;;;;;;;8.85;5.78;;;;;;;0.74;100.00;94718.78;5263043;56;20226;-71
2021/11/29 05:44:00;;;;;;;5.20;3.53;;;;;;;0.73;100.00;94725.41;5254343;56;20111;-71
2021/11/29 05:49:03;;;;;;;5.88;4.25;;;;;;;0.91;100.00;94733.75;5263066;56;20125;-71
2021/11/29 05:54:06;;;;;;;8.80;5.32;;;;;;;0.86;100.00;94745.19;5263060;56;20116;-71
2021/11/29 05:59:08;;;;;;;4.50;3.90;;;;;;;0.94;100.00;94745.72;5263540;56;20226;-71
2021/11/29 06:04:11;;;;;;;8.52;5.00;;;;;;;0.89;100.00;94762.56;5263032;56;20116;-71
2021/11/29 06:09:13;;;;;;;5.85;4.10;;;;;;;0.93;99.99;94771.41;5262568;56;20112;-71
2021/11/29 06:14:16;;;;;;;6.47;4.53;;;;;;;0.94;99.86;94775.63;5262817;56;20138;-71
2021/11/29 06:19:21;;;;;;;8.70;5.45;;;;;;;0.99;99.12;94784.00;5263269;56;20745;-71
2021/11/29 06:24:24;;;;;;;5.30;4.20;;;;;;;0.95;99.45;94799.66;5264380;56;20129;-71
2021/11/29 06:29:26;;;;;;;5.93;5.03;;;;;;;0.84;99.77;94812.81;5253746;56;20575;-71
2021/11/29 06:34:29;;;;;;;14.25;8.07;;;;;;;0.85;100.00;94821.75;5262534;56;20116;-70
2021/11/29 06:39:32;;;;;;;25.60;13.40;;;;;;;0.86;100.00;94824.00;5262808;56;20229;-71
2021/11/29 06:44:35;;;;;;;11.10;7.00;;;;;;;0.94;100.00;94836.22;5262242;56;20549;-71
2021/11/29 06:49:37;;;;;;;8.05;6.63;;;;;;;1.11;99.79;94842.31;5262063;56;20722;-70
2021/11/29 06:54:40;;;;;;;7.00;4.35;;;;;;;0.98;100.00;94858.59;5261955;56;20651;-70
2021/11/29 06:59:44;;;;;;;6.68;5.05;;;;;;;1.25;99.48;94861.63;5252192;56;20771;-72
2021/11/29 07:04:46;;;;;;;8.55;5.75;;;;;;;1.23;99.43;94868.72;5255616;56;20116;-72
2021/11/29 07:09:49;;;;;;;9.60;6.13;;;;;;;1.16;99.30;94875.13;5260131;56;20120;-72
2021/11/29 07:14:52;;;;;;;8.80;5.65;;;;;;;1.25;98.80;94877.97;5258140;56;20103;-72
2021/11/29 07:19:55;;;;;;;8.10;5.38;;;;;;;1.11;98.74;94880.38;5259866;56;20160;-72
2021/11/29 07:25:01;;;;;;;4.65;4.07;;;;;;;1.34;98.72;94888.94;5255452;56;20121;-71
2021/11/29 07:30:06;;;;;;;5.35;4.00;;;;;;;1.49;98.45;94896.66;5264932;56;20129;-71
2021/11/29 07:35:09;;;;;;;5.60;4.35;;;;;;;1.64;98.42;94900.44;5264187;56;20125;-72
2021/11/29 07:40:13;;;;;;;9.68;5.18;;;;;;;1.29;100.00;94903.09;5263397;56;20686;-72
2021/11/29 07:45:15;;;;;;;6.07;4.93;;;;;;;1.47;99.13;94915.41;5261978;56;20120;-72
2021/11/29 07:50:19;;;;;;;4.30;2.97;;;;;;;1.71;98.32;94914.59;5263214;56;20630;-71
2021/11/29 07:55:27;;;;;;;4.60;3.92;;;;;;;1.72;97.86;94923.53;5259804;56;20218;-70
2021/11/29 08:00:34;;;;;;;4.88;4.28;;;;;;;1.64;98.69;94930.38;5250685;56;20121;-71
2021/11/29 08:05:39;;;;;;;5.47;4.45;;;;;;;1.72;98.30;94939.88;5252956;56;20164;-70
2021/11/29 08:10:41;;;;;;;5.22;4.63;;;;;;;1.70;98.18;94948.44;5263204;56;20125;-71
2021/11/29 08:15:44;;;;;;;5.40;4.30;;;;;;;2.04;97.30;94953.94;5262005;56;20112;-71
2021/11/29 08:20:46;;;;;;;7.40;5.10;;;;;;;2.31;94.14;94958.88;5262497;56;20124;-71
2021/11/29 08:25:49;;;;;;;10.15;6.90;;;;;;;2.01;94.77;94978.59;5254094;56;20111;-72
2021/11/29 08:30:51;;;;;;;10.80;6.25;;;;;;;1.93;94.46;94983.50;5262101;56;20116;-72
2021/11/29 08:35:54;;;;;;;10.18;5.72;;;;;;;1.88;94.71;94988.72;5261950;56;20125;-72
2021/11/29 08:40:56;;;;;;;8.65;5.03;;;;;;;2.03;92.93;94987.06;5261855;56;20165;-72
2021/11/29 08:45:59;;;;;;;7.47;5.32;;;;;;;2.10;92.50;94992.28;5262533;56;20177;-72
2021/11/29 08:51:02;;;;;;;7.03;5.18;;;;;;;2.11;92.94;95004.69;5267932;56;20134;-71
2021/11/29 08:56:05;;;;;;;6.00;4.25;;;;;;;2.17;91.57;95011.13;5254231;56;20223;-72
2021/11/29 09:01:09;;;;;;;7.72;4.88;;;;;;;2.43;90.79;95022.72;5247388;56;20121;-72
2021/11/29 09:06:12;;;;;;;6.25;4.65;;;;;;;2.64;89.71;95024.72;5255021;56;20831;-72
2021/11/29 09:11:15;;;;;;;5.55;4.50;;;;;;;2.35;90.23;95037.78;5254858;56;20238;-72
2021/11/29 09:16:18;;;;;;;8.98;5.95;;;;;;;2.31;90.62;95046.06;5263415;56;20753;-72
2021/11/29 09:21:22;;;;;;;6.47;5.18;;;;;;;2.15;90.22;95049.69;5263553;56;20232;-72
2021/11/29 09:26:25;;;;;;;9.50;6.07;;;;;;;2.08;89.40;95051.91;5260766;56;20116;-72
2021/11/29 09:31:27;;;;;;;5.43;4.63;;;;;;;2.00;90.22;95053.31;5267100;56;20129;-72
2021/11/29 09:36:29;;;;;;;7.38;4.90;;;;;;;2.06;89.41;95046.88;5260768;56;20151;-72
2021/11/29 09:41:34;;;;;;;5.93;4.25;;;;;;;2.05;89.79;95050.81;5262418;56;20138;-72
2021/11/29 09:46:36;;;;;;;9.27;5.97;;;;;;;2.12;89.48;95052.56;5263326;56;20116;-72
2021/11/29 09:51:39;;;;;;;12.20;6.80;;;;;;;2.23;88.02;95060.38;5260104;56;20606;-73
2021/11/29 09:56:42;;;;;;;6.43;4.65;;;;;;;2.21;89.20;95060.81;5251844;56;20116;-73
2021/11/29 10:01:44;;;;;;;5.57;4.50;;;;;;;2.52;87.29;95055.50;5261557;56;20124;-72
2021/11/29 10:06:57;;;;;;;5.80;4.22;;;;;;;2.40;87.70;95062.50;5261075;56;20231;-73
2021/11/29 10:12:09;;;;;;;6.63;4.65;;;;;;;2.67;85.84;95062.00;5259868;56;20128;-72
2021/11/29 10:17:12;;;;;;;9.88;7.50;;;;;;;2.42;85.32;95079.19;5253611;56;20125;-72
2021/11/29 10:22:14;;;;;;;12.02;6.95;;;;;;;2.92;86.20;95072.09;5261099;56;20147;-73
2021/11/29 10:27:18;;;;;;;4.30;3.13;;;;;;;2.41;86.43;95066.00;5262007;56;20120;-73
2021/11/29 10:32:30;;;;;;;8.10;5.75;;;;;;;2.64;86.88;95074.56;5262058;56;20588;-73
2021/11/29 10:37:33;;;;;;;6.43;4.40;;;;;;;2.75;85.96;95074.22;5257857;56;20116;-73
2021/11/29 10:42:36;;;;;;;3.40;3.05;;;;;;;2.89;84.35;95071.75;5256302;56;20125;-73
2021/11/29 10:47:38;;;;;;;10.05;5.55;;;;;;;2.92;84.51;95074.81;5245006;56;20120;-72
2021/11/29 10:52:45;;;;;;;8.57;5.68;;;;;;;3.08;82.98;95090.97;5260365;56;20116;-72
2021/11/29 10:57:49;;;;;;;10.48;7.32;;;;;;;2.83;85.01;95100.03;5258604;56;20116;-73
2021/11/29 11:03:02;;;;;;;8.00;5.63;;;;;;;2.75;85.19;95099.53;5256919;56;20877;-72
2021/11/29 11:08:08;;;;;;;5.53;4.88;;;;;;;2.89;86.40;95112.66;5255722;56;20115;-72
2021/11/29 11:13:11;;;;;;;12.80;7.63;;;;;;;2.66;88.68;95117.75;5256855;56;20117;-73
2021/11/29 11:18:13;;;;;;;5.05;4.07;;;;;;;2.54;86.65;95107.63;5261887;56;20112;-73
2021/11/29 11:23:26;;;;;;;6.50;4.75;;;;;;;2.81;85.74;95121.53;5252122;56;20120;-71
2021/11/29 11:28:35;;;;;;;5.65;4.10;;;;;;;3.05;85.17;95117.22;5253660;56;20116;-72
2021/11/29 11:33:56;;;;;;;7.25;5.07;;;;;;;3.05;83.27;95136.31;5246778;56;20173;-72
2021/11/29 11:39:04;;;;;;;8.23;4.70;;;;;;;2.63;84.53;95135.75;5262348;56;20116;-72
2021/11/29 11:44:06;;;;;;;10.77;7.60;;;;;;;2.20;88.00;95119.22;5253604;56;20204;-72
2021/11/29 11:49:09;;;;;;;6.38;4.60;;;;;;;2.09;91.58;95133.19;5262027;56;20125;-72
2021/11/29 11:54:13;;;;;;;6.20;4.93;;;;;;;1.81;93.05;95144.94;5261860;56;20121;-72
2021/11/29 11:59:18;;;;;;;9.90;7.10;;;;;;;1.27;98.77;95155.78;5260719;56;20588;-72
2021/11/29 12:04:21;;;;;;;11.55;7.72;;;;;;;0.93;100.00;95160.22;5259731;56;20112;-71
2021/11/29 12:09:31;;;;;;;2.90;2.63;;;;;;;0.80;100.00;95181.91;5253663;56;20125;-72
2021/11/29 12:14:35;;;;;;;1.48;1.38;;;;;;;0.96;100.00;95172.97;5252686;56;20120;-72
2021/11/29 12:19:41;;;;;;;2.42;1.85;;;;;;;1.43;97.93;95174.03;5245800;56;20129;-69
2021/11/29 12:24:56;;;;;;;3.28;2.53;;;;;;;1.50;97.23;95186.66;5256241;56;20103;-72
2021/11/29 12:29:58;;;;;;;5.50;2.20;;;;;;;1.85;96.52;95197.34;5249258;56;20210;-72
2021/11/29 12:35:10;;;;;;;3.60;2.60;;;;;;;1.89;95.88;95192.56;5261401;56;20234;-72
2021/11/29 12:40:16;;;;;;;7.05;4.65;;;;;;;1.68;95.48;95197.84;5261271;56;20651;-72
2021/11/29 12:45:22;;;;;;;4.00;3.53;;;;;;;1.74;93.67;95193.41;5250265;56;20172;-73
2021/11/29 12:50:34;;;;;;;5.10;3.45;;;;;;;1.75;94.73;95203.09;5255364;56;20120;-73
2021/11/29 12:55:38;;;;;;;5.45;4.63;;;;;;;1.69;93.64;95215.72;5254255;56;20116;-72
2021/11/29 13:00:42;;;;;;;5.30;4.18;;;;;;;2.04;92.01;95233.75;5259810;56;20125;-72
2021/11/29 13:05:52;;;;;;;6.07;4.13;;;;;;;2.27;88.99;95230.75;5262795;56;20120;-72
2021/11/29 13:11:34;;;;;;;4.13;3.40;;;;;;;2.37;88.31;95231.63;5261761;56;20226;-72
2021/11/29 13:16:40;;;;;;;3.20;2.88;;;;;;;2.01;88.37;95240.09;5262148;56;20108;-72
2021/11/29 13:21:55;;;;;;;8.07;3.22;;;;;;;1.96;88.72;95254.25;5261737;56;20942;-72
2021/11/29 13:27:09;;;;;;;4.38;3.33;;;;;;;2.08;87.23;95261.69;5260010;56;20151;-73
2021/11/29 13:32:33;;;;;;;6.63;4.43;;;;;;;2.51;86.02;95261.94;5258065;56;20234;-72
2021/11/29 13:37:38;;;;;;;4.47;3.35;;;;;;;2.34;85.26;95263.25;5258856;56;20944;-71
2021/11/29 13:42:44;;;;;;;5.60;3.72;;;;;;;2.43;85.36;95273.50;5255200;56;20125;-72
2021/11/29 13:48:08;;;;;;;11.05;4.90;;;;;;;2.71;85.71;95281.59;5253595;56;20107;-71
2021/11/29 13:53:14;;;;;;;6.47;4.55;;;;;;;2.59;86.34;95278.88;5256155;56;20111;-71
2021/11/29 13:58:20;;;;;;;4.80;3.40;;;;;;;2.38;88.19;95285.72;5253375;56;20116;-71
2021/11/29 14:03:33;;;;;;;4.82;3.60;;;;;;;2.33;89.71;95290.94;5262699;56;20125;-71
2021/11/29 14:08:37;;;;;;;4.78;3.78;;;;;;;2.02;89.45;95290.63;5262420;56;20134;-71
2021/11/29 14:14:03;;;;;;;8.32;3.58;;;;;;;1.77;88.50;95298.72;5260299;56;20252;-72
2021/11/29 14:19:11;;;;;;;4.80;3.25;;;;;;;1.70;88.64;95307.06;5258202;56;20673;-72
2021/11/29 14:24:16;;;;;;;2.95;2.50;;;;;;;1.84;88.68;95329.25;5259418;56;20235;-72
2021/11/29 14:29:20;;;;;;;2.42;2.10;;;;;;;1.98;88.22;95322.66;5261923;56;20134;-72
2021/11/29 14:34:23;;;;;;;5.47;2.42;;;;;;;1.78;89.10;95335.66;5255145;56;20134;-71
2021/11/29 14:39:30;;;;;;;10.90;3.13;;;;;;;1.56;88.08;95348.31;5258339;56;20579;-72
2021/11/29 14:44:53;;;;;;;9.25;3.92;;;;;;;1.50;88.78;95355.44;5264187;56;20134;-72
2021/11/29 14:50:16;;;;;;;6.80;3.53;;;;;;;1.53;87.92;95370.91;5262049;56;20125;-72
2021/11/29 14:55:21;;;;;;;6.40;3.03;;;;;;;1.44;87.12;95375.00;5261959;56;20749;-72
2021/11/29 15:00:29;;;;;;;1.42;1.33;;;;;;;1.69;87.14;95387.25;5254179;56;20231;-70
2021/11/29 15:05:33;;;;;;;3.73;2.10;;;;;;;1.45;86.93;95392.09;5244153;56;20159;-71
2021/11/29 15:10:36;;;;;;;2.50;1.80;;;;;;;1.40;86.14;95398.06;5250685;56;20549;-71
2021/11/29 15:15:38;;;;;;;2.30;1.83;;;;;;;1.39;86.36;95410.13;5253750;56;20116;-71
2021/11/29 15:20:43;;;;;;;4.43;2.75;;;;;;;1.44;87.29;95410.41;5258986;56;20243;-70
2021/11/29 15:25:49;;;;;;;5.22;3.17;;;;;;;1.32;87.24;95421.94;5259620;56;20175;-71
2021/11/29 15:30:56;;;;;;;1.70;1.60;;;;;;;1.21;87.29;95432.31;5259908;56;20121;-71
2021/11/29 15:35:59;;;;;;;4.13;1.85;;;;;;;0.82;87.90;95437.03;5251727;56;20246;-72
2021/11/29 15:41:15;;;;;;;4.13;3.15;;;;;;;0.66;89.76;95448.63;5261078;56;20134;-72
2021/11/29 15:46:26;;;;;;;1.58;1.20;;;;;;;0.63;90.95;95457.66;5260718;56;20129;-71
2021/11/29 15:51:41;;;;;;;2.85;1.52;;;;;;;0.39;91.10;95458.88;5261334;56;20116;-72
2021/11/29 15:56:44;;;;;;;2.20;2.00;;;;;;;0.42;91.02;95480.56;5256750;56;20682;-72
2021/11/29 16:01:48;;;;;;;2.65;2.13;;;;;;;0.34;90.09;95481.13;5256102;56;20558;-72
2021/11/29 16:06:50;;;;;;;1.42;1.27;;;;;;;0.44;90.52;95493.72;5251712;56;20117;-71
2021/11/29 16:11:53;;;;;;;2.78;1.60;;;;;;;0.21;89.24;95497.25;5252656;56;20129;-72
2021/11/29 16:16:56;;;;;;;0.82;0.82;;;;;;;0.21;88.25;95496.47;5253147;56;20164;-72
2021/11/29 16:21:58;;;;;;;2.13;1.10;;;;;;;0.32;88.94;95513.34;5252762;56;20112;-72
2021/11/29 16:27:04;;;;;;;0.90;0.90;;;;;;;0.36;88.15;95527.66;5257173;56;20111;-72
2021/11/29 16:32:06;;;;;;;2.33;1.35;;;;;;;0.44;88.09;95537.19;5260979;56;20112;-72
2021/11/29 16:37:09;;;;;;;1.58;0.95;;;;;;;0.33;88.51;95531.97;5262540;56;20112;-72
2021/11/29 16:42:11;;;;;;;7.97;1.75;;;;;;;0.20;89.40;95549.28;5255591;56;20117;-72
2021/11/29 16:47:14;;;;;;;0.82;0.60;;;;;;;0.28;89.96;95554.16;5262230;56;20150;-72
2021/11/29 16:52:16;;;;;;;1.05;0.98;;;;;;;0.26;91.11;95558.47;5250208;56;20665;-72
2021/11/29 16:57:19;;;;;;;1.77;1.13;;;;;;;0.22;91.49;95574.06;5255013;56;20116;-72
2021/11/29 17:02:21;;;;;;;0.75;0.75;;;;;;;0.28;91.37;95581.34;5254248;56;20135;-72
2021/11/29 17:07:24;;;;;;;1.20;1.10;;;;;;;0.38;91.43;95594.00;5263200;56;20103;-72
2021/11/29 17:12:26;;;;;;;1.90;1.70;;;;;;;0.45;92.86;95598.53;5254670;56;20107;-72
2021/11/29 17:17:28;;;;;;;1.75;1.58;;;;;;;0.41;92.85;95598.56;5260646;56;20594;-72
2021/11/29 17:22:31;;;;;;;1.45;1.27;;;;;;;0.49;93.02;95612.81;5255648;56;20126;-72
2021/11/29 17:27:49;;;;;;;0.52;0.52;;;;;;;0.56;92.55;95612.72;5260137;56;20685;-72
2021/11/29 17:32:51;;;;;;;1.40;1.30;;;;;;;0.63;92.77;95620.75;5263297;56;20827;-72
2021/11/29 17:37:54;;;;;;;1.20;1.10;;;;;;;0.59;92.80;95617.28;5260442;56;20724;-72
2021/11/29 17:42:56;;;;;;;0.93;0.93;;;;;;;0.57;92.67;95617.72;5263041;56;20130;-72
2021/11/29 17:48:01;;;;;;;0.80;0.80;;;;;;;0.60;92.65;95621.56;5257970;56;20129;-72
2021/11/29 17:53:03;;;;;;;1.20;0.95;;;;;;;0.59;93.11;95633.59;5253819;56;20120;-72
2021/11/29 17:58:06;;;;;;;1.52;1.08;;;;;;;0.63;92.85;95628.91;5266065;56;20669;-72
2021/11/29 18:03:09;;;;;;;1.73;1.40;;;;;;;0.65;92.86;95632.75;5267480;56;20147;-72
2021/11/29 18:08:25;;;;;;;1.55;0.88;;;;;;;0.59;93.50;95628.16;5262445;56;20120;-72
2021/11/29 18:13:29;;;;;;;1.05;1.05;;;;;;;0.70;92.73;95654.00;5262143;56;20115;-72
2021/11/29 18:18:34;;;;;;;1.33;1.23;;;;;;;0.72;92.97;95659.03;5260455;56;20226;-72
2021/11/29 18:23:37;;;;;;;1.60;1.50;;;;;;;0.61;92.53;95664.63;5260183;56;20915;-72
2021/11/29 18:28:41;;;;;;;1.08;0.98;;;;;;;0.60;92.15;95656.91;5258948;56;20696;-72
2021/11/29 18:33:44;;;;;;;0.68;0.40;;;;;;;0.73;90.94;95658.63;5251840;56;20111;-72
2021/11/29 18:38:47;;;;;;;0.95;0.95;;;;;;;0.77;90.21;95665.94;5260597;56;20103;-73
2021/11/29 18:43:50;;;;;;;1.88;1.70;;;;;;;0.61;90.61;95674.75;5260918;56;20125;-72
2021/11/29 18:48:52;;;;;;;1.02;1.00;;;;;;;0.72;90.57;95673.38;5259092;56;20111;-72
2021/11/29 18:53:56;;;;;;;3.03;1.50;;;;;;;0.72;89.77;95675.34;5261698;56;20238;-72
2021/11/29 18:59:01;;;;;;;1.15;1.10;;;;;;;0.78;89.48;95687.28;5260621;56;20213;-72
2021/11/29 19:04:03;;;;;;;0.98;0.88;;;;;;;0.77;89.69;95687.72;5260138;56;20125;-72
2021/11/29 19:09:06;;;;;;;1.30;1.27;;;;;;;0.88;88.91;95680.91;5259606;56;20120;-72
2021/11/29 19:14:08;;;;;;;1.23;1.13;;;;;;;0.74;87.67;95670.25;5250003;56;20148;-72
2021/11/29 19:19:11;;;;;;;1.13;1.13;;;;;;;0.89;87.14;95704.19;5259537;56;20112;-72
2021/11/29 19:24:13;;;;;;;2.15;1.55;;;;;;;0.85;86.56;95702.72;5263547;56;20144;-72
2021/11/29 19:29:16;;;;;;;0.77;0.77;;;;;;;0.91;86.26;95703.75;5241945;56;20121;-72
2021/11/29 19:34:18;;;;;;;1.20;1.08;;;;;;;0.94;86.97;95708.38;5244138;56;20121;-71
2021/11/29 19:39:22;;;;;;;1.35;1.25;;;;;;;0.91;85.98;95720.06;5244087;56;20577;-72
2021/11/29 19:44:24;;;;;;;1.83;1.13;;;;;;;0.98;86.87;95718.00;5244210;56;20763;-72
2021/11/29 19:49:26;;;;;;;1.92;1.83;;;;;;;0.92;89.10;95710.75;5243919;56;20212;-72
2021/11/29 19:54:33;;;;;;;2.90;1.88;;;;;;;0.72;93.17;95719.59;5243849;56;20121;-72
2021/11/29 19:59:35;;;;;;;1.23;1.05;;;;;;;0.63;93.61;95719.34;5235016;56;20126;-72
2021/11/29 20:04:38;;;;;;;2.30;1.30;;;;;;;0.63;93.83;95718.59;5243470;56;20130;-72
2021/11/29 20:09:40;;;;;;;1.23;1.20;;;;;;;0.73;92.87;95726.59;5243745;56;20139;-71
2021/11/29 20:14:43;;;;;;;1.27;1.20;;;;;;;0.70;92.05;95727.41;5243251;56;20644;-71
2021/11/29 20:19:46;;;;;;;1.02;0.93;;;;;;;0.76;91.10;95737.81;5243616;56;20135;-71
2021/11/29 20:24:48;;;;;;;1.85;0.80;;;;;;;0.75;91.64;95737.03;5242987;56;20130;-72
2021/11/29 20:29:51;;;;;;;1.27;1.17;;;;;;;0.70;91.44;95738.28;5243427;56;20117;-70
2021/11/29 20:34:53;;;;;;;1.45;1.35;;;;;;;0.75;91.40;95739.00;5248648;56;20736;-70
2021/11/29 20:40:00;;;;;;;0.85;0.85;;;;;;;0.70;91.64;95756.56;5262490;56;20124;-70
2021/11/29 20:45:04;;;;;;;2.22;1.50;;;;;;;0.66;92.14;95763.97;5262681;56;20143;-70
2021/11/29 20:50:09;;;;;;;2.17;1.95;;;;;;;0.65;92.01;95765.94;5262842;56;20151;-71
2021/11/29 20:55:12;;;;;;;2.63;1.15;;;;;;;0.73;91.40;95763.88;5263799;56;20112;-71
2021/11/29 21:00:15;;;;;;;1.60;1.50;;;;;;;0.73;91.20;95764.66;5259794;56;20129;-70
2021/11/29 21:05:18;;;;;;;0.65;0.65;;;;;;;0.77;90.84;95766.56;5245613;56;20144;-70
2021/11/29 21:10:20;;;;;;;1.63;1.52;;;;;;;0.79;89.59;95775.06;5261326;56;20230;-71
2021/11/29 21:15:22;;;;;;;1.48;1.38;;;;;;;0.85;89.69;95782.34;5263420;56;20729;-71
2021/11/29 21:20:25;;;;;;;1.70;1.17;;;;;;;0.83;90.71;95798.31;5263523;56;20125;-71
2021/11/29 21:25:29;;;;;;;0.75;0.75;;;;;;;0.85;90.02;95782.34;5255162;56;20125;-71
2021/11/29 21:30:31;;;;;;;1.52;1.42;;;;;;;0.85;91.22;95809.53;5263541;56;20584;-71
2021/11/29 21:35:34;;;;;;;2.28;2.00;;;;;;;0.78;90.83;95804.19;5259422;56;20117;-71
2021/11/29 21:40:38;;;;;;;1.63;1.52;;;;;;;0.90;91.00;95811.78;5257902;56;20221;-71
2021/11/29 21:45:41;;;;;;;3.38;1.48;;;;;;;0.69;91.56;95815.59;5254750;56;20120;-71
2021/11/29 21:50:44;;;;;;;2.05;1.48;;;;;;;0.81;91.18;95817.00;5260824;56;20658;-71
2021/11/29 21:55:46;;;;;;;1.58;1.42;;;;;;;0.83;91.26;95828.22;5260836;56;20103;-71
2021/11/29 22:00:49;;;;;;;1.65;1.55;;;;;;;0.80;90.85;95834.47;5256725;56;20174;-71
2021/11/29 22:05:52;;;;;;;1.65;1.55;;;;;;;0.71;91.13;95842.38;5257454;56;20116;-70
2021/11/29 22:10:54;;;;;;;4.95;1.25;;;;;;;0.70;91.32;95838.13;5251178;56;20107;-71
2021/11/29 22:15:57;;;;;;;1.10;1.08;;;;;;;0.83;91.08;95844.53;5260798;56;20120;-70
2021/11/29 22:20:59;;;;;;;1.73;1.40;;;;;;;0.97;90.74;95844.34;5251696;56;20204;-71
2021/11/29 22:26:02;;;;;;;1.80;1.70;;;;;;;0.87;90.86;95845.25;5260241;56;20120;-70
2021/11/29 22:31:04;;;;;;;2.65;1.75;;;;;;;0.80;90.86;95853.50;5261222;56;20204;-70
2021/11/29 22:36:08;;;;;;;2.28;1.85;;;;;;;0.88;90.96;95844.06;5251843;56;20120;-70
2021/11/29 22:41:11;;;;;;;1.90;1.23;;;;;;;0.93;91.55;95856.44;5260689;56;20115;-70
2021/11/29 22:46:14;;;;;;;1.15;1.05;;;;;;;0.90;92.32;95860.75;5258549;56;20136;-71
2021/11/29 22:51:16;;;;;;;4.07;1.73;;;;;;;0.90;92.04;95859.97;5250418;56;20111;-71
2021/11/29 22:56:20;;;;;;;1.33;1.02;;;;;;;0.93;91.97;95865.34;5259735;56;20149;-72
2021/11/29 23:01:30;;;;;;;0.40;0.40;;;;;;;1.01;91.69;95861.38;5241356;56;20139;-70
2021/11/29 23:06:32;;;;;;;1.48;1.38;;;;;;;0.95;91.15;95864.97;5254146;56;20142;-70
2021/11/29 23:11:39;;;;;;;1.63;1.25;;;;;;;1.09;89.83;95881.06;5262098;56;20128;-70
2021/11/29 23:16:44;;;;;;;3.60;2.20;;;;;;;1.06;88.40;95874.50;5260879;56;20116;-70
2021/11/29 23:21:49;;;;;;;0.80;0.80;;;;;;;1.11;87.61;95868.59;5261967;56;20116;-70
2021/11/29 23:26:52;;;;;;;1.95;1.85;;;;;;;1.08;87.96;95880.31;5261742;56;20197;-70
2021/11/29 23:31:54;;;;;;;2.58;1.80;;;;;;;1.09;88.30;95879.09;5261817;56;20121;-70
2021/11/29 23:36:57;;;;;;;1.13;1.02;;;;;;;1.08;88.23;95874.09;5261709;56;20112;-70
2021/11/29 23:41:59;;;;;;;1.80;1.70;;;;;;;1.03;88.50;95883.47;5257534;56;20140;-70
2021/11/29 23:47:15;;;;;;;1.73;1.63;;;;;;;1.08;88.34;95876.81;5249387;56;20122;-70
2021/11/29 23:52:22;;;;;;;1.83;1.35;;;;;;;1.07;89.09;95884.19;5250185;56;20095;-70
2021/11/29 23:57:24;;;;;;;1.52;1.52;;;;;;;1.07;88.35;95891.56;5257645;56;20580;-70
